Temp: 13.4°C   Baro: 1022.3mb
  Wind: 0.0mph   Dir: E (91°)
  Rain: 0.0mm (0.0mm/hr)
  Sun: 0W/m2  Humidity: 78%

Historic data

Bath Spa Weather Station Historical Data
Daily Summary for May 22, 2024 Units:  Both    English   Metric
Daily Weekly Monthly Yearly Custom
  High: Low: Average:
Temperature: 58.8 °F /  14.9 °C 53.2 °F /  11.8 °C 55.4 °F /  13 °C
Dew Point: 55.8 °F /  13.2 °C 51.4 °F /  10.8 °C 52.8 °F /  11.6 °C
Humidity: 95% 83% 91%
Wind Speed: 10.6mph /  17.1km/h - 5.4mph /  8.7km/h
Wind Gust: 19mph /  30.6km/h - -
Wind- - West
Pressure: 29.87 in /  1011.4 hPa 29.77 in /  1008 hPa -
Precipitation: 0.30 in /  7.62 mm    
Historical Graphs
 
 
Tabular Data for May 22, 2024
Time Temperature Dew Point Pressure Wind Wind Speed Wind Gust Humidity Rainfall Rate (Hourly) solar
00:09 55.2 °F /  12.9 °C 52.9 °F /  11.6 °C 29.82in /  1009.7hPa West 2.1mph /  3.4km/h 6mph /  9.7km/h 92% 0.06in /  1.52mm 0 W/m2
00:14 55.1 °F /  12.8 °C 52.8 °F /  11.6 °C 29.82in /  1009.7hPa West 3.4mph /  5.5km/h 6mph /  9.7km/h 92% 0.06in /  1.52mm 0 W/m2
00:19 55 °F /  12.8 °C 52.7 °F /  11.5 °C 29.81in /  1009.4hPa West 3.5mph /  5.6km/h 6mph /  9.7km/h 92% 0.06in /  1.52mm 0 W/m2
00:24 55 °F /  12.8 °C 52.7 °F /  11.5 °C 29.81in /  1009.4hPa WSW 2.6mph /  4.2km/h 6mph /  9.7km/h 92% 0.06in /  1.52mm 0 W/m2
00:29 55 °F /  12.8 °C 52.7 °F /  11.5 °C 29.81in /  1009.4hPa WSW 3.2mph /  5.1km/h 5mph /  8km/h 92% 0.06in /  1.52mm 0 W/m2
00:34 54.9 °F /  12.7 °C 52.6 °F /  11.4 °C 29.81in /  1009.4hPa WSW 3.2mph /  5.1km/h 6mph /  9.7km/h 92% 0.06in /  1.52mm 0 W/m2
00:39 54.9 °F /  12.7 °C 52.5 °F /  11.4 °C 29.81in /  1009.4hPa WSW 2.8mph /  4.5km/h 5mph /  8km/h 92% 0.06in /  1.52mm 0 W/m2
00:44 54.9 °F /  12.7 °C 52.5 °F /  11.4 °C 29.81in /  1009.4hPa WSW 2.1mph /  3.4km/h 5mph /  8km/h 92% 0.06in /  1.52mm 0 W/m2
00:49 54.9 °F /  12.7 °C 52.5 °F /  11.4 °C 29.81in /  1009.4hPa West 2.1mph /  3.4km/h 3mph /  4.8km/h 92% 0.06in /  1.52mm 0 W/m2
00:54 54.7 °F /  12.6 °C 52.3 °F /  11.3 °C 29.80in /  1009hPa West 2.1mph /  3.4km/h 5mph /  8km/h 92% 0.06in /  1.52mm 0 W/m2
00:59 54.4 °F /  12.4 °C 52.1 °F /  11.2 °C 29.80in /  1009hPa WSW 2.6mph /  4.2km/h 4mph /  6.4km/h 92% 0.06in /  1.52mm 0 W/m2
01:04 54.3 °F /  12.4 °C 52 °F /  11.1 °C 29.80in /  1009hPa WSW 2mph /  3.2km/h 4mph /  6.4km/h 92% 0.06in /  1.52mm 0 W/m2
01:09 54.1 °F /  12.3 °C 52.2 °F /  11.2 °C 29.80in /  1009hPa WSW 2.8mph /  4.5km/h 5mph /  8km/h 93% 0.06in /  1.52mm 0 W/m2
01:14 54 °F /  12.2 °C 51.9 °F /  11.1 °C 29.80in /  1009hPa WSW 2.1mph /  3.4km/h 5mph /  8km/h 92.8% 0.06in /  1.52mm 0 W/m2
01:19 54 °F /  12.2 °C 52 °F /  11.1 °C 29.80in /  1009hPa WSW 1.6mph /  2.6km/h 4mph /  6.4km/h 93% 0.05in /  1.27mm 0 W/m2
01:24 53.8 °F /  12.1 °C 51.8 °F /  11 °C 29.80in /  1009hPa WSW 0.9mph /  1.4km/h 3mph /  4.8km/h 93% 0.04in /  1.02mm 0 W/m2
01:29 53.9 °F /  12.2 °C 51.9 °F /  11.1 °C 29.80in /  1009hPa WSW 1.9mph /  3.1km/h 5mph /  8km/h 93% 0.05in /  1.27mm 0 W/m2
01:34 54 °F /  12.2 °C 52 °F /  11.1 °C 29.80in /  1009hPa West 3.4mph /  5.5km/h 6mph /  9.7km/h 93% 0.04in /  1.02mm 0 W/m2
01:39 54 °F /  12.2 °C 52 °F /  11.1 °C 29.80in /  1009hPa West 2.6mph /  4.2km/h 6mph /  9.7km/h 93% 0.03in /  0.76mm 0 W/m2
01:44 54 °F /  12.2 °C 52 °F /  11.1 °C 29.79in /  1008.7hPa West 2.9mph /  4.7km/h 9mph /  14.5km/h 93% 0.03in /  0.76mm 0 W/m2
01:49 54.1 °F /  12.3 °C 52.1 °F /  11.2 °C 29.79in /  1008.7hPa West 5.3mph /  8.5km/h 10mph /  16.1km/h 93% 0.03in /  0.76mm 0 W/m2
01:54 54.1 °F /  12.3 °C 52.2 °F /  11.2 °C 29.79in /  1008.7hPa WNW 4.5mph /  7.2km/h 8mph /  12.9km/h 93% 0.02in /  0.51mm 0 W/m2
01:59 54.1 °F /  12.3 °C 52.2 °F /  11.2 °C 29.79in /  1008.7hPa West 4.6mph /  7.4km/h 11mph /  17.7km/h 93% 0.02in /  0.51mm 0 W/m2
02:04 54.1 °F /  12.3 °C 52.2 °F /  11.2 °C 29.79in /  1008.7hPa West 6mph /  9.7km/h 9mph /  14.5km/h 93% 0.02in /  0.51mm 0 W/m2
02:09 54.1 °F /  12.3 °C 52.2 °F /  11.2 °C 29.79in /  1008.7hPa West 5.7mph /  9.2km/h 9mph /  14.5km/h 93% 0.02in /  0.51mm 0 W/m2
02:14 54.1 °F /  12.3 °C 52.2 °F /  11.2 °C 29.79in /  1008.7hPa WNW 4.9mph /  7.9km/h 11mph /  17.7km/h 93% 0.02in /  0.51mm 0 W/m2
02:19 54.1 °F /  12.3 °C 52.2 °F /  11.2 °C 29.78in /  1008.4hPa WNW 4.9mph /  7.9km/h 9mph /  14.5km/h 93% 0.02in /  0.51mm 0 W/m2
02:24 54.1 °F /  12.3 °C 52.2 °F /  11.2 °C 29.78in /  1008.4hPa West 4.6mph /  7.4km/h 7mph /  11.3km/h 93% 0.02in /  0.51mm 0 W/m2
02:29 54.1 °F /  12.3 °C 52.2 °F /  11.2 °C 29.78in /  1008.4hPa West 4.5mph /  7.2km/h 10mph /  16.1km/h 93% 0.02in /  0.51mm 0 W/m2
02:34 54 °F /  12.2 °C 52 °F /  11.1 °C 29.78in /  1008.4hPa WNW 5.2mph /  8.4km/h 11mph /  17.7km/h 93% 0.02in /  0.51mm 0 W/m2
02:39 53.9 °F /  12.2 °C 51.9 °F /  11.1 °C 29.78in /  1008.4hPa West 6.8mph /  10.9km/h 11mph /  17.7km/h 93% 0.02in /  0.51mm 0 W/m2
02:44 54 °F /  12.2 °C 52.1 °F /  11.2 °C 29.78in /  1008.4hPa West 4.2mph /  6.8km/h 8mph /  12.9km/h 93.2% 0.02in /  0.51mm 0 W/m2
02:49 54 °F /  12.2 °C 52 °F /  11.1 °C 29.78in /  1008.4hPa West 4.1mph /  6.6km/h 9mph /  14.5km/h 93% 0.02in /  0.51mm 0 W/m2
02:54 53.9 °F /  12.2 °C 52 °F /  11.1 °C 29.78in /  1008.4hPa West 4.6mph /  7.4km/h 9mph /  14.5km/h 93.2% 0.02in /  0.51mm 0 W/m2
02:59 53.8 °F /  12.1 °C 52.2 °F /  11.2 °C 29.78in /  1008.4hPa West 4.4mph /  7.1km/h 8mph /  12.9km/h 94% 0.02in /  0.51mm 0 W/m2
03:04 53.8 °F /  12.1 °C 52.2 °F /  11.2 °C 29.78in /  1008.4hPa West 5.4mph /  8.7km/h 9mph /  14.5km/h 94% 0.01in /  0.25mm 0 W/m2
03:09 53.8 °F /  12.1 °C 52.2 °F /  11.2 °C 29.78in /  1008.4hPa West 4mph /  6.4km/h 6mph /  9.7km/h 94% 0.01in /  0.25mm 0 W/m2
03:14 53.8 °F /  12.1 °C 52.2 °F /  11.2 °C 29.78in /  1008.4hPa West 3.1mph /  5km/h 7mph /  11.3km/h 94% 0.01in /  0.25mm 0 W/m2
03:19 53.8 °F /  12.1 °C 52.2 °F /  11.2 °C 29.78in /  1008.4hPa West 2.6mph /  4.2km/h 6mph /  9.7km/h 94% 0.01in /  0.25mm 0 W/m2
03:24 53.7 °F /  12.1 °C 52.1 °F /  11.2 °C 29.78in /  1008.4hPa West 4.5mph /  7.2km/h 7mph /  11.3km/h 94% 0.02in /  0.51mm 0 W/m2
03:29 53.6 °F /  12 °C 52 °F /  11.1 °C 29.78in /  1008.4hPa West 2.7mph /  4.3km/h 8mph /  12.9km/h 94% 0.01in /  0.25mm 0 W/m2
03:34 53.6 °F /  12 °C 52 °F /  11.1 °C 29.78in /  1008.4hPa West 3.4mph /  5.5km/h 7mph /  11.3km/h 94% 0.01in /  0.25mm 0 W/m2
03:39 53.6 °F /  12 °C 52 °F /  11.1 °C 29.78in /  1008.4hPa West 4.4mph /  7.1km/h 8mph /  12.9km/h 94% 0.01in /  0.25mm 0 W/m2
03:44 53.6 °F /  12 °C 52 °F /  11.1 °C 29.78in /  1008.4hPa West 4.2mph /  6.8km/h 6mph /  9.7km/h 94% 0.01in /  0.25mm 0 W/m2
03:49 53.6 °F /  12 °C 52 °F /  11.1 °C 29.78in /  1008.4hPa West 3.3mph /  5.3km/h 8mph /  12.9km/h 94% 0.02in /  0.51mm 0 W/m2
03:54 53.5 °F /  11.9 °C 51.9 °F /  11.1 °C 29.78in /  1008.4hPa West 3.6mph /  5.8km/h 7mph /  11.3km/h 94% 0.02in /  0.51mm 0 W/m2
03:59 53.5 °F /  11.9 °C 51.9 °F /  11.1 °C 29.78in /  1008.4hPa West 3.9mph /  6.3km/h 8mph /  12.9km/h 94% 0.02in /  0.51mm 0 W/m2
04:04 53.4 °F /  11.9 °C 51.8 °F /  11 °C 29.78in /  1008.4hPa West 3.4mph /  5.5km/h 7mph /  11.3km/h 94% 0.03in /  0.76mm 0 W/m2
04:09 53.4 °F /  11.9 °C 51.8 °F /  11 °C 29.78in /  1008.4hPa West 3.5mph /  5.6km/h 6mph /  9.7km/h 94% 0.04in /  1.02mm 0 W/m2
04:14 53.4 °F /  11.9 °C 51.8 °F /  11 °C 29.78in /  1008.4hPa West 3.9mph /  6.3km/h 8mph /  12.9km/h 94% 0.06in /  1.52mm 0 W/m2
04:19 53.4 °F /  11.9 °C 51.8 °F /  11 °C 29.78in /  1008.4hPa WNW 6.3mph /  10.1km/h 8mph /  12.9km/h 94% 0.07in /  1.78mm 0 W/m2
04:24 53.4 °F /  11.9 °C 51.8 °F /  11 °C 29.77in /  1008hPa West 5.7mph /  9.2km/h 10mph /  16.1km/h 94% 0.07in /  1.78mm 0 W/m2
04:29 53.4 °F /  11.9 °C 51.8 °F /  11 °C 29.77in /  1008hPa West 6.3mph /  10.1km/h 10mph /  16.1km/h 94% 0.07in /  1.78mm 0 W/m2
04:34 53.4 °F /  11.9 °C 51.8 °F /  11 °C 29.77in /  1008hPa West 5.4mph /  8.7km/h 8mph /  12.9km/h 94% 0.07in /  1.78mm 0 W/m2
04:39 53.4 °F /  11.9 °C 51.8 °F /  11 °C 29.77in /  1008hPa WNW 3.6mph /  5.8km/h 7mph /  11.3km/h 94% 0.07in /  1.78mm 0 W/m2
04:44 53.4 °F /  11.9 °C 51.8 °F /  11 °C 29.77in /  1008hPa West 3.9mph /  6.3km/h 8mph /  12.9km/h 94% 0.08in /  2.03mm 0 W/m2
04:49 53.4 °F /  11.9 °C 51.8 °F /  11 °C 29.77in /  1008hPa West 4.1mph /  6.6km/h 7mph /  11.3km/h 94% 0.08in /  2.03mm 0 W/m2
04:54 53.4 °F /  11.9 °C 51.8 °F /  11 °C 29.77in /  1008hPa WSW 4.7mph /  7.6km/h 8mph /  12.9km/h 94% 0.07in /  1.78mm 0 W/m2
04:59 53.2 °F /  11.8 °C 51.6 °F /  10.9 °C 29.77in /  1008hPa West 5.4mph /  8.7km/h 10mph /  16.1km/h 94% 0.07in /  1.78mm 0 W/m2
05:04 53.2 °F /  11.8 °C 51.6 °F /  10.9 °C 29.77in /  1008hPa West 4.5mph /  7.2km/h 8mph /  12.9km/h 94% 0.07in /  1.78mm 0 W/m2
05:09 53.2 °F /  11.8 °C 51.6 °F /  10.9 °C 29.77in /  1008hPa West 3.6mph /  5.8km/h 8mph /  12.9km/h 94% 0.06in /  1.52mm 0 W/m2
05:14 53.2 °F /  11.8 °C 51.6 °F /  10.9 °C 29.77in /  1008hPa West 3.5mph /  5.6km/h 7mph /  11.3km/h 94% 0.06in /  1.52mm 0 W/m2
05:19 53.2 °F /  11.8 °C 51.6 °F /  10.9 °C 29.77in /  1008hPa West 5.6mph /  9km/h 9mph /  14.5km/h 94% 0.04in /  1.02mm 0 W/m2
05:24 53.2 °F /  11.8 °C 51.6 °F /  10.9 °C 29.77in /  1008hPa West 3.7mph /  6km/h 9mph /  14.5km/h 94% 0.03in /  0.76mm 0 W/m2
05:29 53.2 °F /  11.8 °C 51.6 °F /  10.9 °C 29.77in /  1008hPa West 5mph /  8km/h 7mph /  11.3km/h 94% 0.02in /  0.51mm 0 W/m2
05:34 53.2 °F /  11.8 °C 51.6 °F /  10.9 °C 29.77in /  1008hPa West 3.8mph /  6.1km/h 7mph /  11.3km/h 94% 0.02in /  0.51mm 0 W/m2
05:39 53.2 °F /  11.8 °C 51.6 °F /  10.9 °C 29.77in /  1008hPa West 3.4mph /  5.5km/h 6mph /  9.7km/h 94% 0.02in /  0.51mm 0 W/m2
05:44 53.2 °F /  11.8 °C 51.6 °F /  10.9 °C 29.77in /  1008hPa West 3.7mph /  6km/h 7mph /  11.3km/h 94% 0.02in /  0.51mm 0 W/m2
05:49 53.2 °F /  11.8 °C 51.6 °F /  10.9 °C 29.77in /  1008hPa WNW 2.8mph /  4.5km/h 6mph /  9.7km/h 94% 0.02in /  0.51mm 5 W/m2
05:54 53.3 °F /  11.8 °C 51.7 °F /  10.9 °C 29.77in /  1008hPa WNW 2.8mph /  4.5km/h 5mph /  8km/h 94% 0.02in /  0.51mm 5 W/m2
05:59 53.2 °F /  11.8 °C 51.6 °F /  10.9 °C 29.77in /  1008hPa West 3.6mph /  5.8km/h 7mph /  11.3km/h 94% 0.02in /  0.51mm 5 W/m2
06:04 53.2 °F /  11.8 °C 51.6 °F /  10.9 °C 29.77in /  1008hPa West 5.3mph /  8.5km/h 9mph /  14.5km/h 94% 0.02in /  0.51mm 12 W/m2
06:09 53.3 °F /  11.8 °C 51.7 °F /  10.9 °C 29.77in /  1008hPa West 4.2mph /  6.8km/h 9mph /  14.5km/h 94% 0.02in /  0.51mm 16 W/m2
06:14 53.2 °F /  11.8 °C 51.6 °F /  10.9 °C 29.77in /  1008hPa WNW 3mph /  4.8km/h 9mph /  14.5km/h 94% 0.02in /  0.51mm 19 W/m2
06:19 53.4 °F /  11.9 °C 51.8 °F /  11 °C 29.77in /  1008hPa West 4.8mph /  7.7km/h 7mph /  11.3km/h 94% 0.01in /  0.25mm 23 W/m2
06:24 53.3 °F /  11.8 °C 51.7 °F /  10.9 °C 29.77in /  1008hPa West 4.8mph /  7.7km/h 6mph /  9.7km/h 94% 0.01in /  0.25mm 25 W/m2
06:29 53.4 °F /  11.9 °C 51.8 °F /  11 °C 29.77in /  1008hPa West 4.4mph /  7.1km/h 8mph /  12.9km/h 94.2% 0.01in /  0.25mm 28 W/m2
06:34 53.4 °F /  11.9 °C 51.9 °F /  11.1 °C 29.77in /  1008hPa West 3.7mph /  6km/h 8mph /  12.9km/h 94.4% 0.01in /  0.25mm 35 W/m2
06:39 53.4 °F /  11.9 °C 51.9 °F /  11.1 °C 29.77in /  1008hPa West 3mph /  4.8km/h 8mph /  12.9km/h 94.4% 0.01in /  0.25mm 42 W/m2
06:44 53.4 °F /  11.9 °C 51.9 °F /  11.1 °C 29.77in /  1008hPa West 2.5mph /  4km/h 5mph /  8km/h 94.4% 0.01in /  0.25mm 51 W/m2
06:49 53.4 °F /  11.9 °C 51.8 °F /  11 °C 29.77in /  1008hPa West 4.8mph /  7.7km/h 9mph /  14.5km/h 94.2% 0.01in /  0.25mm 63 W/m2
06:54 53.4 °F /  11.9 °C 51.8 °F /  11 °C 29.77in /  1008hPa West 3.9mph /  6.3km/h 9mph /  14.5km/h 94% 0.00in /  0mm 65 W/m2
06:59 53.6 °F /  12 °C 52 °F /  11.1 °C 29.77in /  1008hPa West 4.4mph /  7.1km/h 8mph /  12.9km/h 94% 0.00in /  0mm 62 W/m2
07:04 53.6 °F /  12 °C 52.1 °F /  11.2 °C 29.77in /  1008hPa West 4.1mph /  6.6km/h 8mph /  12.9km/h 94.2% 0.00in /  0mm 86 W/m2
07:09 53.8 °F /  12.1 °C 52.2 °F /  11.2 °C 29.77in /  1008hPa West 3mph /  4.8km/h 8mph /  12.9km/h 94.3% 0.00in /  0mm 93 W/m2
07:14 53.8 °F /  12.1 °C 52.2 °F /  11.2 °C 29.77in /  1008hPa WNW 4.4mph /  7.1km/h 8mph /  12.9km/h 94.4% 0.00in /  0mm 98 W/m2
07:19 54 °F /  12.2 °C 52.5 °F /  11.4 °C 29.77in /  1008hPa West 3mph /  4.8km/h 8mph /  12.9km/h 95% 0.00in /  0mm 104 W/m2
07:24 54 °F /  12.2 °C 52.5 °F /  11.4 °C 29.77in /  1008hPa West 3.4mph /  5.5km/h 7mph /  11.3km/h 95% 0.00in /  0mm 104 W/m2
07:29 54 °F /  12.2 °C 52.5 °F /  11.4 °C 29.77in /  1008hPa West 4.7mph /  7.6km/h 9mph /  14.5km/h 95% 0.00in /  0mm 102 W/m2
07:34 54.1 °F /  12.3 °C 52.6 °F /  11.4 °C 29.77in /  1008hPa West 4.1mph /  6.6km/h 7mph /  11.3km/h 94.8% 0.00in /  0mm 102 W/m2
07:39 54.1 °F /  12.3 °C 52.5 °F /  11.4 °C 29.77in /  1008hPa West 3.9mph /  6.3km/h 7mph /  11.3km/h 94% 0.00in /  0mm 74 W/m2
07:44 54.2 °F /  12.3 °C 52.6 °F /  11.4 °C 29.77in /  1008hPa West 1.6mph /  2.6km/h 5mph /  8km/h 94% 0.00in /  0mm 46 W/m2
07:49 54.3 °F /  12.4 °C 52.7 °F /  11.5 °C 29.77in /  1008hPa West 2.1mph /  3.4km/h 4mph /  6.4km/h 94% 0.00in /  0mm 54 W/m2
07:54 54.3 °F /  12.4 °C 52.7 °F /  11.5 °C 29.77in /  1008hPa West 3.3mph /  5.3km/h 6mph /  9.7km/h 94.2% 0.00in /  0mm 67 W/m2
07:59 54.3 °F /  12.4 °C 52.7 °F /  11.5 °C 29.77in /  1008hPa WSW 3.7mph /  6km/h 6mph /  9.7km/h 94% 0.00in /  0mm 65 W/m2
08:04 54.5 °F /  12.5 °C 53 °F /  11.7 °C 29.77in /  1008hPa West 3.4mph /  5.5km/h 6mph /  9.7km/h 94.8% 0.00in /  0mm 74 W/m2
08:09 54.7 °F /  12.6 °C 53.2 °F /  11.8 °C 29.77in /  1008hPa West 2.2mph /  3.5km/h 5mph /  8km/h 95% 0.00in /  0mm 69 W/m2
08:14 54.8 °F /  12.7 °C 53.2 °F /  11.8 °C 29.77in /  1008hPa West 3.2mph /  5.1km/h 5mph /  8km/h 94.4% 0.00in /  0mm 97 W/m2
08:19 54.9 °F /  12.7 °C 53.2 °F /  11.8 °C 29.77in /  1008hPa WNW 4.8mph /  7.7km/h 8mph /  12.9km/h 94% 0.00in /  0mm 123 W/m2
08:24 55 °F /  12.8 °C 53.4 °F /  11.9 °C 29.77in /  1008hPa WNW 4.8mph /  7.7km/h 8mph /  12.9km/h 94% 0.00in /  0mm 153 W/m2
08:29 55.1 °F /  12.8 °C 53.5 °F /  11.9 °C 29.77in /  1008hPa WNW 5.8mph /  9.3km/h 11mph /  17.7km/h 94% 0.00in /  0mm 171 W/m2
08:34 55.3 °F /  12.9 °C 53.8 °F /  12.1 °C 29.77in /  1008hPa West 3.2mph /  5.1km/h 7mph /  11.3km/h 95% 0.00in /  0mm 178 W/m2
08:39 55.4 °F /  13 °C 54 °F /  12.2 °C 29.77in /  1008hPa WNW 5.2mph /  8.4km/h 10mph /  16.1km/h 95% 0.00in /  0mm 174 W/m2
08:44 55.3 °F /  12.9 °C 53.8 °F /  12.1 °C 29.77in /  1008hPa West 4.7mph /  7.6km/h 9mph /  14.5km/h 94.2% 0.00in /  0mm 160 W/m2
08:49 55.4 °F /  13 °C 53.8 °F /  12.1 °C 29.77in /  1008hPa West 6mph /  9.7km/h 10mph /  16.1km/h 94% 0.00in /  0mm 178 W/m2
08:54 55.4 °F /  13 °C 53.8 °F /  12.1 °C 29.77in /  1008hPa WNW 6.4mph /  10.3km/h 11mph /  17.7km/h 94% 0.00in /  0mm 178 W/m2
08:59 55.4 °F /  13 °C 53.8 °F /  12.1 °C 29.78in /  1008.4hPa West 4.1mph /  6.6km/h 10mph /  16.1km/h 94% 0.00in /  0mm 174 W/m2
09:04 55.6 °F /  13.1 °C 54 °F /  12.2 °C 29.78in /  1008.4hPa WNW 4mph /  6.4km/h 7mph /  11.3km/h 94% 0.00in /  0mm 160 W/m2
09:09 55.6 °F /  13.1 °C 54 °F /  12.2 °C 29.78in /  1008.4hPa West 4.8mph /  7.7km/h 10mph /  16.1km/h 94% 0.01in /  0.25mm 158 W/m2
09:14 55.5 °F /  13.1 °C 53.9 °F /  12.2 °C 29.78in /  1008.4hPa WNW 5.1mph /  8.2km/h 11mph /  17.7km/h 94% 0.01in /  0.25mm 163 W/m2
09:19 55.4 °F /  13 °C 53.8 °F /  12.1 °C 29.78in /  1008.4hPa WNW 6.6mph /  10.6km/h 12mph /  19.3km/h 94% 0.01in /  0.25mm 172 W/m2
09:24 55.4 °F /  13 °C 53.8 °F /  12.1 °C 29.78in /  1008.4hPa West 6.5mph /  10.5km/h 10mph /  16.1km/h 94% 0.01in /  0.25mm 156 W/m2
09:29 55.6 °F /  13.1 °C 54 °F /  12.2 °C 29.78in /  1008.4hPa West 5.1mph /  8.2km/h 10mph /  16.1km/h 94% 0.01in /  0.25mm 151 W/m2
09:34 55.6 °F /  13.1 °C 54 °F /  12.2 °C 29.78in /  1008.4hPa WNW 6.6mph /  10.6km/h 15mph /  24.1km/h 94% 0.01in /  0.25mm 171 W/m2
09:39 55.4 °F /  13 °C 53.8 °F /  12.1 °C 29.78in /  1008.4hPa West 6.8mph /  10.9km/h 11mph /  17.7km/h 94% 0.01in /  0.25mm 178 W/m2
09:44 55.4 °F /  13 °C 53.8 °F /  12.1 °C 29.78in /  1008.4hPa West 6.2mph /  10km/h 11mph /  17.7km/h 94% 0.01in /  0.25mm 160 W/m2
09:49 55.3 °F /  12.9 °C 53.4 °F /  11.9 °C 29.78in /  1008.4hPa West 6mph /  9.7km/h 13mph /  20.9km/h 93.2% 0.02in /  0.51mm 160 W/m2
09:54 55.2 °F /  12.9 °C 53.4 °F /  11.9 °C 29.78in /  1008.4hPa West 6.8mph /  10.9km/h 11mph /  17.7km/h 93.6% 0.02in /  0.51mm 179 W/m2
09:59 55.2 °F /  12.9 °C 53.3 °F /  11.8 °C 29.78in /  1008.4hPa West 3.7mph /  6km/h 9mph /  14.5km/h 93.2% 0.02in /  0.51mm 178 W/m2
10:04 55.4 °F /  13 °C 53.4 °F /  11.9 °C 29.78in /  1008.4hPa West 4.8mph /  7.7km/h 10mph /  16.1km/h 93% 0.02in /  0.51mm 181 W/m2
10:09 55 °F /  12.8 °C 53.1 °F /  11.7 °C 29.78in /  1008.4hPa West 6.6mph /  10.6km/h 12mph /  19.3km/h 93% 0.02in /  0.51mm 186 W/m2
10:14 55 °F /  12.8 °C 53.1 °F /  11.7 °C 29.78in /  1008.4hPa West 4.6mph /  7.4km/h 9mph /  14.5km/h 93% 0.02in /  0.51mm 179 W/m2
10:19 55 °F /  12.8 °C 53.1 °F /  11.7 °C 29.78in /  1008.4hPa West 4.3mph /  6.9km/h 9mph /  14.5km/h 93% 0.02in /  0.51mm 178 W/m2
10:24 55.2 °F /  12.9 °C 53.2 °F /  11.8 °C 29.78in /  1008.4hPa WSW 4.4mph /  7.1km/h 7mph /  11.3km/h 93% 0.02in /  0.51mm 186 W/m2
10:29 55.2 °F /  12.9 °C 53.2 °F /  11.8 °C 29.78in /  1008.4hPa West 7.4mph /  11.9km/h 11mph /  17.7km/h 93% 0.03in /  0.76mm 192 W/m2
10:34 54.9 °F /  12.7 °C 52.9 °F /  11.6 °C 29.78in /  1008.4hPa West 6mph /  9.7km/h 11mph /  17.7km/h 93% 0.03in /  0.76mm 214 W/m2
10:39 54.9 °F /  12.7 °C 53 °F /  11.7 °C 29.78in /  1008.4hPa West 4.9mph /  7.9km/h 9mph /  14.5km/h 93% 0.03in /  0.76mm 216 W/m2
10:44 54.9 °F /  12.7 °C 53 °F /  11.7 °C 29.78in /  1008.4hPa WSW 5.8mph /  9.3km/h 9mph /  14.5km/h 93% 0.03in /  0.76mm 214 W/m2
10:49 55 °F /  12.8 °C 53.1 °F /  11.7 °C 29.78in /  1008.4hPa West 6mph /  9.7km/h 11mph /  17.7km/h 93% 0.03in /  0.76mm 197 W/m2
10:54 55 °F /  12.8 °C 53.1 °F /  11.7 °C 29.78in /  1008.4hPa West 5.4mph /  8.7km/h 11mph /  17.7km/h 93% 0.02in /  0.51mm 199 W/m2
10:59 55.2 °F /  12.9 °C 53.2 °F /  11.8 °C 29.78in /  1008.4hPa West 5.6mph /  9km/h 11mph /  17.7km/h 93% 0.03in /  0.76mm 204 W/m2
11:04 55.3 °F /  12.9 °C 53.3 °F /  11.8 °C 29.78in /  1008.4hPa West 8.8mph /  14.2km/h 13mph /  20.9km/h 93% 0.03in /  0.76mm 190 W/m2
11:09 55.3 °F /  12.9 °C 53.3 °F /  11.8 °C 29.78in /  1008.4hPa WSW 5.6mph /  9km/h 10mph /  16.1km/h 93% 0.02in /  0.51mm 151 W/m2
11:14 55.5 °F /  13.1 °C 53.5 °F /  11.9 °C 29.78in /  1008.4hPa West 7.2mph /  11.6km/h 13mph /  20.9km/h 93% 0.02in /  0.51mm 142 W/m2
11:19 55.5 °F /  13.1 °C 53.5 °F /  11.9 °C 29.78in /  1008.4hPa WSW 6.8mph /  10.9km/h 11mph /  17.7km/h 93% 0.02in /  0.51mm 130 W/m2
11:24 55.5 °F /  13.1 °C 53.5 °F /  11.9 °C 29.78in /  1008.4hPa West 5.1mph /  8.2km/h 12mph /  19.3km/h 93% 0.02in /  0.51mm 120 W/m2
11:29 55.5 °F /  13.1 °C 53.5 °F /  11.9 °C 29.78in /  1008.4hPa West 5.6mph /  9km/h 10mph /  16.1km/h 93% 0.02in /  0.51mm 74 W/m2
11:34 55.4 °F /  13 °C 53.4 °F /  11.9 °C 29.78in /  1008.4hPa West 6.2mph /  10km/h 9mph /  14.5km/h 93% 0.01in /  0.25mm 88 W/m2
11:39 55.2 °F /  12.9 °C 53.2 °F /  11.8 °C 29.78in /  1008.4hPa West 5.2mph /  8.4km/h 9mph /  14.5km/h 93% 0.01in /  0.25mm 148 W/m2
11:44 55.4 °F /  13 °C 53.4 °F /  11.9 °C 29.78in /  1008.4hPa West 5.7mph /  9.2km/h 9mph /  14.5km/h 93% 0.01in /  0.25mm 163 W/m2
11:49 55.3 °F /  12.9 °C 53.3 °F /  11.8 °C 29.78in /  1008.4hPa WSW 5.8mph /  9.3km/h 12mph /  19.3km/h 93% 0.01in /  0.25mm 179 W/m2
11:54 55.2 °F /  12.9 °C 53.2 °F /  11.8 °C 29.78in /  1008.4hPa West 6.4mph /  10.3km/h 13mph /  20.9km/h 93% 0.01in /  0.25mm 218 W/m2
11:59 55.2 °F /  12.9 °C 53.2 °F /  11.8 °C 29.78in /  1008.4hPa West 7.6mph /  12.2km/h 15mph /  24.1km/h 93% 0.01in /  0.25mm 151 W/m2
12:04 55.2 °F /  12.9 °C 53.1 °F /  11.7 °C 29.78in /  1008.4hPa WSW 6mph /  9.7km/h 13mph /  20.9km/h 92.6% 0.00in /  0mm 207 W/m2
12:09 55.4 °F /  13 °C 53.2 °F /  11.8 °C 29.78in /  1008.4hPa WSW 6.8mph /  10.9km/h 13mph /  20.9km/h 92.2% 0.00in /  0mm 200 W/m2
12:14 55.5 °F /  13.1 °C 53.5 °F /  11.9 °C 29.78in /  1008.4hPa West 8.2mph /  13.2km/h 13mph /  20.9km/h 93% 0.00in /  0mm 264 W/m2
12:19 55.7 °F /  13.2 °C 53.5 °F /  11.9 °C 29.78in /  1008.4hPa WSW 7mph /  11.3km/h 12mph /  19.3km/h 92.4% 0.00in /  0mm 269 W/m2
12:24 55.9 °F /  13.3 °C 53.5 °F /  11.9 °C 29.78in /  1008.4hPa WSW 5.4mph /  8.7km/h 11mph /  17.7km/h 92% 0.00in /  0mm 311 W/m2
12:29 56.1 °F /  13.4 °C 53.9 °F /  12.2 °C 29.78in /  1008.4hPa West 6.4mph /  10.3km/h 12mph /  19.3km/h 92.4% 0.00in /  0mm 308 W/m2
12:34 56.2 °F /  13.4 °C 53.9 °F /  12.2 °C 29.78in /  1008.4hPa West 3.8mph /  6.1km/h 12mph /  19.3km/h 92% 0.00in /  0mm 301 W/m2
12:39 56.2 °F /  13.4 °C 53.9 °F /  12.2 °C 29.78in /  1008.4hPa WSW 4.5mph /  7.2km/h 12mph /  19.3km/h 92% 0.00in /  0mm 327 W/m2
12:44 56.3 °F /  13.5 °C 54 °F /  12.2 °C 29.78in /  1008.4hPa West 7mph /  11.3km/h 14mph /  22.5km/h 92% 0.00in /  0mm 330 W/m2
12:49 56.7 °F /  13.7 °C 54.3 °F /  12.4 °C 29.78in /  1008.4hPa WSW 4.8mph /  7.7km/h 9mph /  14.5km/h 92% 0.00in /  0mm 272 W/m2
12:54 56.8 °F /  13.8 °C 54.5 °F /  12.5 °C 29.78in /  1008.4hPa WSW 6.7mph /  10.8km/h 14mph /  22.5km/h 92% 0.00in /  0mm 287 W/m2
12:59 56.8 °F /  13.8 °C 54.5 °F /  12.5 °C 29.78in /  1008.4hPa WSW 7.6mph /  12.2km/h 14mph /  22.5km/h 92% 0.00in /  0mm 297 W/m2
13:04 56.7 °F /  13.7 °C 54.3 °F /  12.4 °C 29.78in /  1008.4hPa West 8.4mph /  13.5km/h 15mph /  24.1km/h 92% 0.00in /  0mm 315 W/m2
13:09 56.7 °F /  13.7 °C 54.2 °F /  12.3 °C 29.78in /  1008.4hPa WSW 4.8mph /  7.7km/h 15mph /  24.1km/h 91% 0.00in /  0mm 362 W/m2
13:14 56.9 °F /  13.8 °C 54.4 °F /  12.4 °C 29.78in /  1008.4hPa WSW 7.2mph /  11.6km/h 13mph /  20.9km/h 91% 0.00in /  0mm 404 W/m2
13:19 57.3 °F /  14.1 °C 54.8 °F /  12.7 °C 29.78in /  1008.4hPa WSW 4.8mph /  7.7km/h 14mph /  22.5km/h 91% 0.00in /  0mm 392 W/m2
13:24 57.5 °F /  14.2 °C 54.9 °F /  12.7 °C 29.78in /  1008.4hPa West 5.6mph /  9km/h 11mph /  17.7km/h 90.8% 0.00in /  0mm 383 W/m2
13:29 57.7 °F /  14.3 °C 54.9 °F /  12.7 °C 29.78in /  1008.4hPa West 3.6mph /  5.8km/h 10mph /  16.1km/h 90.2% 0.00in /  0mm 385 W/m2
13:34 57.6 °F /  14.2 °C 54.7 °F /  12.6 °C 29.78in /  1008.4hPa WSW 10.4mph /  16.7km/h 17mph /  27.4km/h 90% 0.00in /  0mm 348 W/m2
13:39 57.5 °F /  14.2 °C 54.6 °F /  12.6 °C 29.78in /  1008.4hPa West 6.7mph /  10.8km/h 15mph /  24.1km/h 90% 0.00in /  0mm 353 W/m2
13:44 57.6 °F /  14.2 °C 54.6 °F /  12.6 °C 29.78in /  1008.4hPa West 5.1mph /  8.2km/h 12mph /  19.3km/h 89.6% 0.00in /  0mm 336 W/m2
13:49 57.5 °F /  14.2 °C 54.2 °F /  12.3 °C 29.78in /  1008.4hPa WSW 7.6mph /  12.2km/h 16mph /  25.7km/h 89% 0.00in /  0mm 360 W/m2
13:54 57.8 °F /  14.3 °C 54.6 °F /  12.6 °C 29.77in /  1008hPa WSW 4.4mph /  7.1km/h 12mph /  19.3km/h 89% 0.00in /  0mm 346 W/m2
13:59 58.1 °F /  14.5 °C 54.8 °F /  12.7 °C 29.77in /  1008hPa WSW 8mph /  12.9km/h 14mph /  22.5km/h 89% 0.00in /  0mm 346 W/m2
14:04 58.3 °F /  14.6 °C 54.7 °F /  12.6 °C 29.77in /  1008hPa WSW 7mph /  11.3km/h 14mph /  22.5km/h 88% 0.00in /  0mm 362 W/m2
14:09 58.4 °F /  14.7 °C 54.6 °F /  12.6 °C 29.77in /  1008hPa West 7.5mph /  12.1km/h 16mph /  25.7km/h 87.2% 0.00in /  0mm 353 W/m2
14:14 58.5 °F /  14.7 °C 54.7 °F /  12.6 °C 29.77in /  1008hPa WSW 7.8mph /  12.6km/h 16mph /  25.7km/h 87% 0.00in /  0mm 357 W/m2
14:19 58.6 °F /  14.8 °C 54.5 °F /  12.5 °C 29.78in /  1008.4hPa WSW 7.2mph /  11.6km/h 14mph /  22.5km/h 86.2% 0.00in /  0mm 385 W/m2
14:24 58.6 °F /  14.8 °C 54.4 °F /  12.4 °C 29.77in /  1008hPa WSW 9.4mph /  15.1km/h 16mph /  25.7km/h 85.6% 0.00in /  0mm 346 W/m2
14:29 58.8 °F /  14.9 °C 54.3 °F /  12.4 °C 29.77in /  1008hPa West 8mph /  12.9km/h 16mph /  25.7km/h 85% 0.00in /  0mm 299 W/m2
14:34 58.5 °F /  14.7 °C 54 °F /  12.2 °C 29.78in /  1008.4hPa West 7.2mph /  11.6km/h 14mph /  22.5km/h 85% 0.00in /  0mm 264 W/m2
14:39 58.1 °F /  14.5 °C 53.9 °F /  12.2 °C 29.78in /  1008.4hPa West 5.8mph /  9.3km/h 12mph /  19.3km/h 86% 0.00in /  0mm 267 W/m2
14:44 57.7 °F /  14.3 °C 53.9 °F /  12.2 °C 29.78in /  1008.4hPa WNW 6.8mph /  10.9km/h 16mph /  25.7km/h 86.8% 0.00in /  0mm 221 W/m2
14:49 57.3 °F /  14.1 °C 53.5 °F /  11.9 °C 29.78in /  1008.4hPa West 8mph /  12.9km/h 15mph /  24.1km/h 87% 0.01in /  0.25mm 169 W/m2
14:54 56.9 °F /  13.8 °C 53.3 °F /  11.8 °C 29.78in /  1008.4hPa WSW 8.2mph /  13.2km/h 15mph /  24.1km/h 88% 0.01in /  0.25mm 165 W/m2
14:59 56.8 °F /  13.8 °C 53.2 °F /  11.8 °C 29.78in /  1008.4hPa West 5.3mph /  8.5km/h 12mph /  19.3km/h 88% 0.02in /  0.51mm 167 W/m2
15:04 56.8 °F /  13.8 °C 53.5 °F /  11.9 °C 29.78in /  1008.4hPa West 7.4mph /  11.9km/h 12mph /  19.3km/h 88.8% 0.03in /  0.76mm 155 W/m2
15:09 56.8 °F /  13.8 °C 53.5 °F /  11.9 °C 29.78in /  1008.4hPa West 5.8mph /  9.3km/h 12mph /  19.3km/h 89% 0.04in /  1.02mm 332 W/m2
15:14 57.1 °F /  13.9 °C 54.2 °F /  12.3 °C 29.77in /  1008hPa West 4.6mph /  7.4km/h 10mph /  16.1km/h 89.8% 0.04in /  1.02mm 394 W/m2
15:19 57.4 °F /  14.1 °C 54.5 °F /  12.5 °C 29.77in /  1008hPa West 6.4mph /  10.3km/h 13mph /  20.9km/h 90% 0.04in /  1.02mm 397 W/m2
15:24 57.6 °F /  14.2 °C 54.7 °F /  12.6 °C 29.77in /  1008hPa West 7.1mph /  11.4km/h 14mph /  22.5km/h 90% 0.04in /  1.02mm 380 W/m2
15:29 57.6 °F /  14.2 °C 54.7 °F /  12.6 °C 29.78in /  1008.4hPa West 8.4mph /  13.5km/h 14mph /  22.5km/h 90% 0.04in /  1.02mm 343 W/m2
15:34 57.5 °F /  14.2 °C 54.6 °F /  12.6 °C 29.78in /  1008.4hPa West 9.4mph /  15.1km/h 17mph /  27.4km/h 90% 0.04in /  1.02mm 274 W/m2
15:39 57.5 °F /  14.2 °C 54.6 °F /  12.6 °C 29.78in /  1008.4hPa West 7.9mph /  12.7km/h 13mph /  20.9km/h 90% 0.04in /  1.02mm 141 W/m2
15:44 57.1 °F /  13.9 °C 54.2 °F /  12.3 °C 29.78in /  1008.4hPa WSW 6.1mph /  9.8km/h 16mph /  25.7km/h 90% 0.04in /  1.02mm 109 W/m2
15:49 56.8 °F /  13.8 °C 54 °F /  12.2 °C 29.78in /  1008.4hPa WSW 6.2mph /  10km/h 15mph /  24.1km/h 90% 0.05in /  1.27mm 190 W/m2
15:54 57 °F /  13.9 °C 54.3 °F /  12.4 °C 29.78in /  1008.4hPa WSW 5.6mph /  9km/h 12mph /  19.3km/h 90.4% 0.04in /  1.02mm 427 W/m2
15:59 57.5 °F /  14.2 °C 55 °F /  12.8 °C 29.78in /  1008.4hPa West 6.4mph /  10.3km/h 13mph /  20.9km/h 91% 0.04in /  1.02mm 432 W/m2
16:04 57.6 °F /  14.2 °C 55 °F /  12.8 °C 29.78in /  1008.4hPa West 7mph /  11.3km/h 15mph /  24.1km/h 91% 0.02in /  0.51mm 327 W/m2
16:09 57.6 °F /  14.2 °C 55.1 °F /  12.8 °C 29.78in /  1008.4hPa WSW 6.6mph /  10.6km/h 15mph /  24.1km/h 91% 0.01in /  0.25mm 274 W/m2
16:14 57.6 °F /  14.2 °C 54.9 °F /  12.7 °C 29.78in /  1008.4hPa West 7.6mph /  12.2km/h 13mph /  20.9km/h 90.4% 0.01in /  0.25mm 443 W/m2
16:19 57.9 °F /  14.4 °C 55.1 °F /  12.8 °C 29.78in /  1008.4hPa West 9mph /  14.5km/h 16mph /  25.7km/h 90.5% 0.01in /  0.25mm 570 W/m2
16:24 58.3 °F /  14.6 °C 55.4 °F /  13 °C 29.78in /  1008.4hPa West 6.4mph /  10.3km/h 15mph /  24.1km/h 90% 0.01in /  0.25mm 570 W/m2
16:29 58.4 °F /  14.7 °C 55.6 °F /  13.1 °C 29.78in /  1008.4hPa West 7.1mph /  11.4km/h 15mph /  24.1km/h 90% 0.01in /  0.25mm 541 W/m2
16:34 58.6 °F /  14.8 °C 55.8 °F /  13.2 °C 29.78in /  1008.4hPa West 7.2mph /  11.6km/h 14mph /  22.5km/h 90% 0.01in /  0.25mm 439 W/m2
16:39 58.7 °F /  14.8 °C 55.8 °F /  13.2 °C 29.78in /  1008.4hPa West 5.9mph /  9.5km/h 16mph /  25.7km/h 89.8% 0.01in /  0.25mm 373 W/m2
16:44 58.8 °F /  14.9 °C 55.6 °F /  13.1 °C 29.78in /  1008.4hPa West 8.2mph /  13.2km/h 15mph /  24.1km/h 89% 0.01in /  0.25mm 341 W/m2
16:49 58.8 °F /  14.9 °C 55.6 °F /  13.1 °C 29.78in /  1008.4hPa West 10.6mph /  17.1km/h 16mph /  25.7km/h 89% 0.01in /  0.25mm 253 W/m2
16:54 58.6 °F /  14.8 °C 55 °F /  12.8 °C 29.79in /  1008.7hPa West 7.2mph /  11.6km/h 18mph /  29km/h 88% 0.00in /  0mm 214 W/m2
16:59 58.3 °F /  14.6 °C 54.5 °F /  12.5 °C 29.79in /  1008.7hPa WNW 8.8mph /  14.2km/h 18mph /  29km/h 87% 0.00in /  0mm 237 W/m2
17:04 57.9 °F /  14.4 °C 53.8 °F /  12.1 °C 29.79in /  1008.7hPa West 9.6mph /  15.4km/h 15mph /  24.1km/h 86% 0.00in /  0mm 206 W/m2
17:09 57.7 °F /  14.3 °C 53.3 °F /  11.8 °C 29.79in /  1008.7hPa West 5.8mph /  9.3km/h 17mph /  27.4km/h 85.2% 0.00in /  0mm 178 W/m2
17:14 57.7 °F /  14.3 °C 53.2 °F /  11.8 °C 29.79in /  1008.7hPa West 7.7mph /  12.4km/h 15mph /  24.1km/h 85% 0.00in /  0mm 197 W/m2
17:19 57.6 °F /  14.2 °C 53.1 °F /  11.7 °C 29.79in /  1008.7hPa West 6.6mph /  10.6km/h 14mph /  22.5km/h 85% 0.00in /  0mm 214 W/m2
17:24 57.5 °F /  14.2 °C 53 °F /  11.7 °C 29.80in /  1009hPa West 6mph /  9.7km/h 14mph /  22.5km/h 85% 0.00in /  0mm 183 W/m2
17:29 57.5 °F /  14.2 °C 53 °F /  11.7 °C 29.80in /  1009hPa WNW 4.9mph /  7.9km/h 13mph /  20.9km/h 85% 0.00in /  0mm 178 W/m2
17:34 57.4 °F /  14.1 °C 52.9 °F /  11.6 °C 29.80in /  1009hPa West 7mph /  11.3km/h 13mph /  20.9km/h 85% 0.00in /  0mm 142 W/m2
17:39 57.3 °F /  14.1 °C 52.8 °F /  11.6 °C 29.80in /  1009hPa West 6.6mph /  10.6km/h 12mph /  19.3km/h 85% 0.00in /  0mm 137 W/m2
17:44 57.3 °F /  14.1 °C 52.8 °F /  11.6 °C 29.80in /  1009hPa West 6.8mph /  10.9km/h 13mph /  20.9km/h 85% 0.00in /  0mm 176 W/m2
17:49 57.4 °F /  14.1 °C 52.9 °F /  11.6 °C 29.80in /  1009hPa West 5mph /  8km/h 11mph /  17.7km/h 85% 0.00in /  0mm 167 W/m2
17:54 57.4 °F /  14.1 °C 52.9 °F /  11.6 °C 29.80in /  1009hPa West 8.8mph /  14.2km/h 13mph /  20.9km/h 85% 0.00in /  0mm 176 W/m2
17:59 57.5 °F /  14.2 °C 53 °F /  11.7 °C 29.80in /  1009hPa West 6.6mph /  10.6km/h 14mph /  22.5km/h 85% 0.00in /  0mm 195 W/m2
18:04 57.6 °F /  14.2 °C 53.1 °F /  11.7 °C 29.80in /  1009hPa West 8.2mph /  13.2km/h 14mph /  22.5km/h 85% 0.00in /  0mm 171 W/m2
18:09 57.6 °F /  14.2 °C 53.1 °F /  11.7 °C 29.80in /  1009hPa West 5.7mph /  9.2km/h 14mph /  22.5km/h 85% 0.00in /  0mm 130 W/m2
18:14 57.6 °F /  14.2 °C 53.1 °F /  11.7 °C 29.80in /  1009hPa West 6.5mph /  10.5km/h 12mph /  19.3km/h 85% 0.00in /  0mm 127 W/m2
18:19 57.6 °F /  14.2 °C 53.1 °F /  11.7 °C 29.80in /  1009hPa West 6.3mph /  10.1km/h 12mph /  19.3km/h 85% 0.00in /  0mm 195 W/m2
18:24 57.7 °F /  14.3 °C 53.1 °F /  11.7 °C 29.80in /  1009hPa West 7.8mph /  12.6km/h 13mph /  20.9km/h 84.8% 0.00in /  0mm 185 W/m2
18:29 57.7 °F /  14.3 °C 53.1 °F /  11.7 °C 29.80in /  1009hPa West 6.9mph /  11.1km/h 16mph /  25.7km/h 84.6% 0.00in /  0mm 135 W/m2
18:34 57.7 °F /  14.3 °C 53.1 °F /  11.7 °C 29.80in /  1009hPa WSW 8.7mph /  14km/h 15mph /  24.1km/h 84.8% 0.00in /  0mm 178 W/m2
18:39 57.7 °F /  14.3 °C 53.2 °F /  11.8 °C 29.81in /  1009.4hPa West 6.4mph /  10.3km/h 13mph /  20.9km/h 85% 0.00in /  0mm 95 W/m2
18:44 57.6 °F /  14.2 °C 53.1 °F /  11.7 °C 29.81in /  1009.4hPa West 9.6mph /  15.4km/h 19mph /  30.6km/h 85% 0.00in /  0mm 100 W/m2
18:49 57.6 °F /  14.2 °C 52.8 °F /  11.6 °C 29.81in /  1009.4hPa West 5.4mph /  8.7km/h 13mph /  20.9km/h 84.2% 0.00in /  0mm 69 W/m2
18:54 57.4 °F /  14.1 °C 52.5 °F /  11.4 °C 29.81in /  1009.4hPa West 6.7mph /  10.8km/h 16mph /  25.7km/h 84% 0.00in /  0mm 74 W/m2
18:59 57.1 °F /  13.9 °C 52.2 °F /  11.2 °C 29.82in /  1009.7hPa West 8mph /  12.9km/h 15mph /  24.1km/h 83.4% 0.00in /  0mm 54 W/m2
19:04 57 °F /  13.9 °C 52 °F /  11.1 °C 29.82in /  1009.7hPa West 9.8mph /  15.8km/h 14mph /  22.5km/h 83% 0.00in /  0mm 42 W/m2
19:09 56.8 °F /  13.8 °C 51.8 °F /  11 °C 29.82in /  1009.7hPa WNW 5.6mph /  9km/h 14mph /  22.5km/h 83% 0.00in /  0mm 35 W/m2
19:14 56.8 °F /  13.8 °C 51.8 °F /  11 °C 29.82in /  1009.7hPa West 6.6mph /  10.6km/h 11mph /  17.7km/h 83% 0.00in /  0mm 30 W/m2
19:19 56.7 °F /  13.7 °C 51.6 °F /  10.9 °C 29.82in /  1009.7hPa West 6.6mph /  10.6km/h 12mph /  19.3km/h 83% 0.00in /  0mm 25 W/m2
19:24 56.7 °F /  13.7 °C 51.6 °F /  10.9 °C 29.83in /  1010hPa West 6mph /  9.7km/h 13mph /  20.9km/h 83% 0.00in /  0mm 25 W/m2
19:29 56.7 °F /  13.7 °C 51.6 °F /  10.9 °C 29.83in /  1010hPa West 4mph /  6.4km/h 13mph /  20.9km/h 83% 0.00in /  0mm 21 W/m2
19:34 56.6 °F /  13.7 °C 51.5 °F /  10.8 °C 29.83in /  1010hPa WSW 7.6mph /  12.2km/h 11mph /  17.7km/h 83% 0.00in /  0mm 16 W/m2
19:39 56.5 °F /  13.6 °C 51.4 °F /  10.8 °C 29.83in /  1010hPa West 5.6mph /  9km/h 11mph /  17.7km/h 83% 0.00in /  0mm 16 W/m2
19:44 56.5 °F /  13.6 °C 51.4 °F /  10.8 °C 29.83in /  1010hPa West 6.4mph /  10.3km/h 12mph /  19.3km/h 83% 0.00in /  0mm 14 W/m2
19:49 56.4 °F /  13.6 °C 51.4 °F /  10.8 °C 29.83in /  1010hPa West 6.1mph /  9.8km/h 12mph /  19.3km/h 83.2% 0.00in /  0mm 11 W/m2
19:54 56.3 °F /  13.5 °C 51.4 °F /  10.8 °C 29.83in /  1010hPa West 3.5mph /  5.6km/h 8mph /  12.9km/h 84% 0.00in /  0mm 12 W/m2
19:59 56.3 °F /  13.5 °C 51.6 °F /  10.9 °C 29.83in /  1010hPa West 3.4mph /  5.5km/h 8mph /  12.9km/h 84.4% 0.00in /  0mm 12 W/m2
20:04 56.3 °F /  13.5 °C 51.8 °F /  11 °C 29.83in /  1010hPa West 4.8mph /  7.7km/h 14mph /  22.5km/h 85% 0.00in /  0mm 12 W/m2
20:09 56.2 °F /  13.4 °C 51.7 °F /  10.9 °C 29.83in /  1010hPa WSW 4.7mph /  7.6km/h 14mph /  22.5km/h 85% 0.00in /  0mm 12 W/m2
20:14 56.1 °F /  13.4 °C 51.9 °F /  11.1 °C 29.83in /  1010hPa West 4.4mph /  7.1km/h 10mph /  16.1km/h 85.8% 0.00in /  0mm 12 W/m2
20:19 55.9 °F /  13.3 °C 51.8 °F /  11 °C 29.84in /  1010.4hPa WSW 5.9mph /  9.5km/h 10mph /  16.1km/h 86% 0.00in /  0mm 11 W/m2
20:24 55.9 °F /  13.3 °C 52 °F /  11.1 °C 29.84in /  1010.4hPa West 5.1mph /  8.2km/h 14mph /  22.5km/h 86.4% 0.00in /  0mm 9 W/m2
20:29 55.8 °F /  13.2 °C 52 °F /  11.1 °C 29.84in /  1010.4hPa West 6.4mph /  10.3km/h 9mph /  14.5km/h 87% 0.00in /  0mm 11 W/m2
20:34 55.8 °F /  13.2 °C 52 °F /  11.1 °C 29.84in /  1010.4hPa West 4.7mph /  7.6km/h 9mph /  14.5km/h 87% 0.00in /  0mm 7 W/m2
20:39 55.8 °F /  13.2 °C 52 °F /  11.1 °C 29.84in /  1010.4hPa West 4.1mph /  6.6km/h 9mph /  14.5km/h 87% 0.00in /  0mm 7 W/m2
20:44 55.8 °F /  13.2 °C 52 °F /  11.1 °C 29.84in /  1010.4hPa West 4.6mph /  7.4km/h 8mph /  12.9km/h 87% 0.00in /  0mm 7 W/m2
20:49 55.7 °F /  13.2 °C 52.1 °F /  11.2 °C 29.84in /  1010.4hPa West 4.6mph /  7.4km/h 10mph /  16.1km/h 87.6% 0.00in /  0mm 0 W/m2
20:54 55.6 °F /  13.1 °C 52.2 °F /  11.2 °C 29.85in /  1010.7hPa West 4.8mph /  7.7km/h 8mph /  12.9km/h 88% 0.00in /  0mm 0 W/m2
20:59 55.6 °F /  13.1 °C 52.2 °F /  11.2 °C 29.85in /  1010.7hPa West 5.7mph /  9.2km/h 11mph /  17.7km/h 88% 0.00in /  0mm 0 W/m2
21:04 55.5 °F /  13.1 °C 52.1 °F /  11.2 °C 29.85in /  1010.7hPa West 5.2mph /  8.4km/h 10mph /  16.1km/h 88% 0.00in /  0mm 0 W/m2
21:09 55.3 °F /  12.9 °C 51.9 °F /  11.1 °C 29.85in /  1010.7hPa West 4.2mph /  6.8km/h 10mph /  16.1km/h 88% 0.00in /  0mm 0 W/m2
21:14 55.2 °F /  12.9 °C 51.8 °F /  11 °C 29.85in /  1010.7hPa West 6.6mph /  10.6km/h 11mph /  17.7km/h 88% 0.00in /  0mm 0 W/m2
21:19 55 °F /  12.8 °C 51.6 °F /  10.9 °C 29.85in /  1010.7hPa West 5.4mph /  8.7km/h 16mph /  25.7km/h 88.2% 0.00in /  0mm 0 W/m2
21:24 55 °F /  12.8 °C 51.6 °F /  10.9 °C 29.85in /  1010.7hPa West 4.8mph /  7.7km/h 9mph /  14.5km/h 88.4% 0.00in /  0mm 0 W/m2
21:29 54.9 °F /  12.7 °C 51.6 °F /  10.9 °C 29.85in /  1010.7hPa West 7.6mph /  12.2km/h 14mph /  22.5km/h 89% 0.00in /  0mm 0 W/m2
21:34 54.9 °F /  12.7 °C 51.6 °F /  10.9 °C 29.86in /  1011.1hPa West 3.1mph /  5km/h 11mph /  17.7km/h 89% 0.00in /  0mm 0 W/m2
21:39 54.7 °F /  12.6 °C 51.4 °F /  10.8 °C 29.86in /  1011.1hPa West 7.6mph /  12.2km/h 12mph /  19.3km/h 89% 0.00in /  0mm 0 W/m2
21:44 54.7 °F /  12.6 °C 51.4 °F /  10.8 °C 29.86in /  1011.1hPa West 5.8mph /  9.3km/h 12mph /  19.3km/h 89% 0.00in /  0mm 0 W/m2
21:49 54.7 °F /  12.6 °C 51.4 °F /  10.8 °C 29.86in /  1011.1hPa West 6.3mph /  10.1km/h 12mph /  19.3km/h 89% 0.00in /  0mm 0 W/m2
21:54 54.7 °F /  12.6 °C 51.4 °F /  10.8 °C 29.86in /  1011.1hPa West 5.5mph /  8.9km/h 12mph /  19.3km/h 89% 0.00in /  0mm 0 W/m2
21:59 54.7 °F /  12.6 °C 51.6 °F /  10.9 °C 29.86in /  1011.1hPa West 4.9mph /  7.9km/h 10mph /  16.1km/h 89.4% 0.00in /  0mm 0 W/m2
22:04 54.7 °F /  12.6 °C 51.8 °F /  11 °C 29.86in /  1011.1hPa West 6.6mph /  10.6km/h 11mph /  17.7km/h 90% 0.00in /  0mm 0 W/m2
22:09 54.7 °F /  12.6 °C 51.8 °F /  11 °C 29.86in /  1011.1hPa West 6mph /  9.7km/h 12mph /  19.3km/h 90% 0.00in /  0mm 0 W/m2
22:14 54.7 °F /  12.6 °C 51.8 °F /  11 °C 29.86in /  1011.1hPa West 6mph /  9.7km/h 10mph /  16.1km/h 90% 0.00in /  0mm 0 W/m2
22:19 54.7 °F /  12.6 °C 51.8 °F /  11 °C 29.86in /  1011.1hPa West 6.5mph /  10.5km/h 12mph /  19.3km/h 90% 0.00in /  0mm 0 W/m2
22:24 54.7 °F /  12.6 °C 51.8 °F /  11 °C 29.86in /  1011.1hPa WNW 6.6mph /  10.6km/h 12mph /  19.3km/h 90% 0.00in /  0mm 0 W/m2
22:29 54.7 °F /  12.6 °C 51.8 °F /  11 °C 29.86in /  1011.1hPa WNW 6mph /  9.7km/h 11mph /  17.7km/h 90% 0.00in /  0mm 0 W/m2
22:34 54.7 °F /  12.6 °C 51.8 °F /  11 °C 29.86in /  1011.1hPa West 6.1mph /  9.8km/h 12mph /  19.3km/h 90% 0.00in /  0mm 0 W/m2
22:39 54.7 °F /  12.6 °C 51.8 °F /  11 °C 29.87in /  1011.4hPa West 7.6mph /  12.2km/h 16mph /  25.7km/h 90% 0.00in /  0mm 0 W/m2
22:44 54.7 °F /  12.6 °C 51.8 °F /  11 °C 29.87in /  1011.4hPa West 6.1mph /  9.8km/h 14mph /  22.5km/h 90% 0.00in /  0mm 0 W/m2
22:49 54.8 °F /  12.7 °C 51.9 °F /  11.1 °C 29.87in /  1011.4hPa WNW 5.3mph /  8.5km/h 12mph /  19.3km/h 90% 0.00in /  0mm 0 W/m2
22:54 54.9 °F /  12.7 °C 52 °F /  11.1 °C 29.87in /  1011.4hPa WSW 7.1mph /  11.4km/h 14mph /  22.5km/h 90% 0.00in /  0mm 0 W/m2
22:59 54.9 °F /  12.7 °C 52 °F /  11.1 °C 29.87in /  1011.4hPa West 6mph /  9.7km/h 13mph /  20.9km/h 90% 0.00in /  0mm 0 W/m2
23:04 54.9 °F /  12.7 °C 52 °F /  11.1 °C 29.87in /  1011.4hPa West 4.6mph /  7.4km/h 11mph /  17.7km/h 90% 0.00in /  0mm 0 W/m2
23:09 54.9 °F /  12.7 °C 52 °F /  11.1 °C 29.87in /  1011.4hPa West 6.4mph /  10.3km/h 12mph /  19.3km/h 90% 0.00in /  0mm 0 W/m2
23:14 54.7 °F /  12.6 °C 51.8 °F /  11 °C 29.87in /  1011.4hPa West 5.8mph /  9.3km/h 15mph /  24.1km/h 90% 0.00in /  0mm 0 W/m2
23:19 54.7 °F /  12.6 °C 51.8 °F /  11 °C 29.86in /  1011.1hPa WSW 6.4mph /  10.3km/h 11mph /  17.7km/h 90% 0.00in /  0mm 0 W/m2
23:24 54.7 °F /  12.6 °C 51.8 °F /  11 °C 29.86in /  1011.1hPa West 6.6mph /  10.6km/h 11mph /  17.7km/h 90% 0.00in /  0mm 0 W/m2
23:29 54.6 °F /  12.6 °C 51.7 °F /  10.9 °C 29.86in /  1011.1hPa West 5.1mph /  8.2km/h 10mph /  16.1km/h 90% 0.00in /  0mm 0 W/m2
23:34 54.4 °F /  12.4 °C 51.5 °F /  10.8 °C 29.86in /  1011.1hPa West 3.8mph /  6.1km/h 9mph /  14.5km/h 90% 0.00in /  0mm 0 W/m2
23:39 54.3 °F /  12.4 °C 51.4 °F /  10.8 °C 29.86in /  1011.1hPa West 4.1mph /  6.6km/h 9mph /  14.5km/h 90% 0.00in /  0mm 0 W/m2
23:44 54.2 °F /  12.3 °C 51.5 °F /  10.8 °C 29.87in /  1011.4hPa West 3.2mph /  5.1km/h 8mph /  12.9km/h 90.6% 0.00in /  0mm 0 W/m2
23:49 54.1 °F /  12.3 °C 51.6 °F /  10.9 °C 29.87in /  1011.4hPa WSW 4.2mph /  6.8km/h 10mph /  16.1km/h 91% 0.00in /  0mm 0 W/m2
23:54 54.1 °F /  12.3 °C 51.6 °F /  10.9 °C 29.87in /  1011.4hPa WSW 4.3mph /  6.9km/h 10mph /  16.1km/h 91% 0.00in /  0mm 0 W/m2
23:59 54.1 °F /  12.3 °C 51.6 °F /  10.9 °C 29.87in /  1011.4hPa West 6.4mph /  10.3km/h 14mph /  22.5km/h 91% 0.00in /  0mm 0 W/m2
Bath Spa Weather
Compliments of Weather Underground - 2 mb